South Erie, Pennsylvania
Current Conditions -  °F | °C
As of 1:51 PM on Friday 24 Oct 2014 (Local Time) from KERI Reporting Station
Clear Clear  
Wind Chill: 57°   Ceiling: Unl
Heat Index: 57°   Visibility: 10mi
Dew Point: 41°   Wind: 9mph
Humidity: 55%   Direction: 280°W
Pressure: 30.03"   Gusts: NA
Location:  42.0975°N, 80.0932°W
Report Text: KERI 241751Z 28008KT 10SM CLR 14/05 A3003 RMK AO2 SLP171 T01390050 10144 20039 58011
Loading
Personal Weather Stations






























Interactive Weather Map
Tropical Storm Tracking
New forecast layout! Learn more

10-Day Weather Forecast

Advertisements
Track Severe Weather on mobile